createdAt,value
2022-08-29T00:00:52.109Z,97276.16
2022-08-29T00:03:21.096Z,97275.02
2022-08-29T00:05:50.645Z,97278.51
2022-08-29T00:08:20.121Z,97282.04
2022-08-29T00:10:49.729Z,97276.77
2022-08-29T00:13:18.720Z,97273.25
2022-08-29T00:15:48.225Z,97269.84
2022-08-29T00:18:19.573Z,97272.67
2022-08-29T00:20:50.444Z,97269.75
2022-08-29T00:23:20.969Z,97268.27
2022-08-29T00:25:51.252Z,97262.52
2022-08-29T00:28:20.654Z,97260.44
2022-08-29T00:30:50.480Z,97255.95
2022-08-29T00:33:22.448Z,97255.95
2022-08-29T00:35:52.278Z,97255.43
2022-08-29T00:38:26.432Z,97257.02
2022-08-29T00:40:59.615Z,97259.16
2022-08-29T00:43:34.389Z,97256.90
2022-08-29T00:46:43.346Z,97255.73
2022-08-29T00:49:24.991Z,97256.52
2022-08-29T00:51:57.191Z,97256.56
2022-08-29T00:54:28.689Z,97257.94
2022-08-29T00:56:59.595Z,97261.25
2022-08-29T00:59:37.334Z,97258.88
2022-08-29T01:02:09.053Z,97257.52
2022-08-29T01:04:40.530Z,97253.72
2022-08-29T01:07:12.468Z,97255.12
2022-08-29T01:09:47.947Z,97250.06
2022-08-29T01:12:17.729Z,97248.80
2022-08-29T01:15:01.106Z,97247.52
2022-08-29T01:17:38.089Z,97243.55
2022-08-29T01:20:34.059Z,97242.08
2022-08-29T01:23:27.287Z,97243.12
2022-08-29T01:25:57.603Z,97243.81
2022-08-29T01:28:34.917Z,97245.41
2022-08-29T01:31:55.751Z,97245.52
2022-08-29T01:34:11.804Z,97247.98
2022-08-29T01:36:56.194Z,97250.67
2022-08-29T01:39:30.222Z,97256.34
2022-08-29T01:42:04.265Z,97256.63
2022-08-29T01:44:34.131Z,97254.27
2022-08-29T01:47:03.655Z,97256.27
2022-08-29T01:49:35.789Z,97255.35
2022-08-29T01:52:12.629Z,97254.58
2022-08-29T01:54:45.405Z,97257.30
2022-08-29T01:57:16.183Z,97257.56
2022-08-29T01:59:47.013Z,97256.13
2022-08-29T02:02:24.025Z,97256.00
2022-08-29T02:04:55.460Z,97257.09
2022-08-29T02:07:27.003Z,97256.14
2022-08-29T02:09:57.828Z,97253.76
2022-08-29T02:12:28.523Z,97257.77
2022-08-29T02:14:59.574Z,97259.98
2022-08-29T02:17:30.462Z,97259.06
2022-08-29T02:20:01.159Z,97258.80
2022-08-29T02:22:31.934Z,97261.34
2022-08-29T02:25:25.349Z,97265.20
2022-08-29T02:27:56.330Z,97269.89
2022-08-29T02:30:27.012Z,97273.02
2022-08-29T02:32:58.046Z,97279.48
2022-08-29T02:35:28.693Z,97274.85
2022-08-29T02:38:01.178Z,97274.94
2022-08-29T02:40:32.509Z,97275.50
2022-08-29T02:43:03.381Z,97282.46
2022-08-29T02:45:36.600Z,97283.32
2022-08-29T02:48:07.555Z,97286.30
2022-08-29T02:50:40.649Z,97290.40
2022-08-29T02:53:12.038Z,97295.70
2022-08-29T02:55:43.564Z,97299.33
2022-08-29T02:58:15.169Z,97299.36
2022-08-29T03:00:45.811Z,97300.41
2022-08-29T03:03:15.584Z,97302.15
2022-08-29T03:05:46.412Z,97302.61
2022-08-29T03:08:16.997Z,97305.71
2022-08-29T03:10:47.208Z,97309.73
2022-08-29T03:13:19.298Z,97312.20
2022-08-29T03:15:49.422Z,97313.42
2022-08-29T03:18:20.691Z,97311.46
2022-08-29T03:20:52.120Z,97314.88
2022-08-29T03:23:22.449Z,97316.59
2022-08-29T03:25:51.654Z,97322.56
2022-08-29T03:28:21.037Z,97324.95
2022-08-29T03:30:51.584Z,97324.62
2022-08-29T03:33:21.963Z,97326.70
2022-08-29T03:35:52.411Z,97326.60
2022-08-29T03:38:23.266Z,97330.88
2022-08-29T03:40:52.662Z,97335.34
2022-08-29T03:43:27.091Z,97339.61
2022-08-29T03:45:56.889Z,97339.54
2022-08-29T03:48:26.881Z,97343.05
2022-08-29T03:50:56.701Z,97347.02
2022-08-29T03:53:27.871Z,97351.11
2022-08-29T03:55:57.961Z,97350.35
2022-08-29T03:58:27.324Z,97348.08
2022-08-29T04:00:56.558Z,97350.37
2022-08-29T04:03:30.885Z,97352.20
2022-08-29T04:06:01.829Z,97350.11
2022-08-29T04:08:31.789Z,97350.36
2022-08-29T04:11:01.259Z,97351.61
2022-08-29T04:13:30.927Z,97352.66
2022-08-29T04:16:00.192Z,97357.70
2022-08-29T04:18:29.892Z,97358.45
2022-08-29T04:21:03.284Z,97356.09
2022-08-29T04:23:33.698Z,97358.15
2022-08-29T04:26:26.348Z,97358.55
2022-08-29T04:28:53.472Z,97362.28
2022-08-29T04:31:23.350Z,97365.02
2022-08-29T04:33:53.475Z,97366.33
2022-08-29T04:36:22.423Z,97369.70
2022-08-29T04:38:51.615Z,97374.20
2022-08-29T04:41:20.517Z,97373.70
2022-08-29T04:43:49.983Z,97372.84
2022-08-29T04:46:23.951Z,97377.55
2022-08-29T04:48:54.773Z,97373.84
2022-08-29T04:51:24.280Z,97375.31
2022-08-29T04:53:54.088Z,97378.94
2022-08-29T04:56:23.274Z,97380.35
2022-08-29T04:58:52.572Z,97386.55
2022-08-29T05:01:24.581Z,97385.86
2022-08-29T05:03:54.760Z,97383.91
2022-08-29T05:06:24.678Z,97386.17
2022-08-29T05:08:58.836Z,97390.27
2022-08-29T05:11:31.548Z,97393.48
2022-08-29T05:14:02.950Z,97392.71
2022-08-29T05:16:35.286Z,97388.13
2022-08-29T05:19:06.763Z,97393.77
2022-08-29T05:21:38.489Z,97395.75
2022-08-29T05:24:11.020Z,97397.73
2022-08-29T05:26:43.697Z,97398.10
2022-08-29T05:29:14.075Z,97397.19
2022-08-29T05:31:45.482Z,97398.74
2022-08-29T05:34:34.382Z,97394.43
2022-08-29T05:37:11.056Z,97395.31
2022-08-29T05:39:40.152Z,97396.41
2022-08-29T05:42:11.103Z,97393.48
2022-08-29T05:44:40.904Z,97392.78
2022-08-29T05:47:12.086Z,97395.56
2022-08-29T05:49:43.205Z,97393.69
2022-08-29T05:52:14.132Z,97388.95
2022-08-29T05:54:44.754Z,97387.50
2022-08-29T05:57:19.215Z,97387.05
2022-08-29T05:59:54.112Z,97388.36
2022-08-29T06:02:23.435Z,97390.30
2022-08-29T06:04:52.806Z,97387.31
2022-08-29T06:07:21.811Z,97387.48
2022-08-29T06:09:53.372Z,97391.23
2022-08-29T06:12:24.269Z,97388.70
2022-08-29T06:14:54.206Z,97391.20
2022-08-29T06:17:23.199Z,97388.09
2022-08-29T06:19:52.903Z,97388.29
2022-08-29T06:22:22.819Z,97390.71
2022-08-29T06:24:57.695Z,97392.73
2022-08-29T06:27:27.667Z,97397.33
2022-08-29T06:30:00.120Z,97400.66
2022-08-29T06:32:30.569Z,97399.21
2022-08-29T06:35:00.181Z,97400.55
2022-08-29T06:37:28.964Z,97402.63
2022-08-29T06:39:57.781Z,97401.82
2022-08-29T06:42:28.719Z,97400.84
2022-08-29T06:44:58.295Z,97405.87
2022-08-29T06:47:27.193Z,97406.64
2022-08-29T06:49:56.076Z,97412.30
2022-08-29T06:52:24.971Z,97409.91
2022-08-29T06:54:53.963Z,97403.70
2022-08-29T06:57:22.648Z,97405.39
2022-08-29T06:59:51.334Z,97407.55
2022-08-29T07:02:20.286Z,97412.56
2022-08-29T07:04:49.011Z,97419.09
2022-08-29T07:07:17.700Z,97419.48
2022-08-29T07:09:47.933Z,97416.15
2022-08-29T07:12:16.921Z,97408.34
2022-08-29T07:14:48.665Z,97408.80
2022-08-29T07:17:25.787Z,97403.02
2022-08-29T07:19:55.253Z,97401.15
2022-08-29T07:22:23.837Z,97400.04
2022-08-29T07:24:53.806Z,97399.19
2022-08-29T07:27:23.151Z,97404.14
2022-08-29T07:29:51.835Z,97408.64
2022-08-29T07:32:25.299Z,97407.42
2022-08-29T07:34:56.208Z,97407.61
2022-08-29T07:37:25.270Z,97406.74
2022-08-29T07:39:54.641Z,97411.35
2022-08-29T07:42:23.871Z,97407.88
2022-08-29T07:44:52.620Z,97410.16
2022-08-29T07:47:21.754Z,97408.80
2022-08-29T07:49:50.744Z,97404.52
2022-08-29T07:52:19.740Z,97401.46
2022-08-29T07:54:48.215Z,97394.35
2022-08-29T07:57:18.234Z,97397.13
2022-08-29T07:59:47.227Z,97398.20
2022-08-29T08:02:15.934Z,97397.50
2022-08-29T08:04:46.754Z,97397.05
2022-08-29T08:07:17.315Z,97400.48
2022-08-29T08:09:46.477Z,97398.84
2022-08-29T08:12:17.003Z,97395.62
2022-08-29T08:14:45.591Z,97395.70
2022-08-29T08:17:14.483Z,97398.29
2022-08-29T08:19:46.443Z,97391.70
2022-08-29T08:22:15.440Z,97391.65
2022-08-29T08:24:45.421Z,97394.27
2022-08-29T08:27:14.132Z,97392.89
2022-08-29T08:29:44.874Z,97388.39
2022-08-29T08:32:13.654Z,97386.73
2022-08-29T08:34:43.367Z,97380.45
2022-08-29T08:37:12.853Z,97377.26
2022-08-29T08:39:48.426Z,97376.96
2022-08-29T08:42:43.014Z,97379.98
2022-08-29T08:45:19.171Z,97378.80
2022-08-29T08:47:53.396Z,97384.78
2022-08-29T08:50:52.453Z,97381.98
2022-08-29T08:53:42.368Z,97384.05
2022-08-29T08:56:19.963Z,97381.17
2022-08-29T08:59:03.393Z,97378.43
2022-08-29T09:01:40.177Z,97379.80
2022-08-29T09:04:27.279Z,97378.33
2022-08-29T09:07:47.070Z,97378.41
2022-08-29T09:10:32.818Z,97378.23
2022-08-29T09:13:22.233Z,97372.10
2022-08-29T09:15:56.612Z,97373.53
2022-08-29T09:18:33.217Z,97373.12
2022-08-29T09:21:40.144Z,97375.55
2022-08-29T09:24:15.038Z,97374.03
2022-08-29T09:26:43.992Z,97375.96
2022-08-29T09:29:14.347Z,97372.95
2022-08-29T09:31:43.740Z,97373.60
2022-08-29T09:34:45.185Z,97374.13
2022-08-29T09:37:28.736Z,97368.09
2022-08-29T09:40:16.574Z,97373.86
2022-08-29T09:43:01.953Z,97365.36
2022-08-29T09:45:30.802Z,97366.75
2022-08-29T09:48:16.626Z,97367.50
2022-08-29T09:50:45.824Z,97368.30
2022-08-29T09:53:24.759Z,97367.17
2022-08-29T09:55:54.467Z,97364.99
2022-08-29T09:58:24.593Z,97363.98
2022-08-29T10:01:12.160Z,97358.81
2022-08-29T10:04:03.028Z,97362.23
2022-08-29T10:06:44.329Z,97361.45
2022-08-29T10:09:29.095Z,97361.89
2022-08-29T10:12:14.739Z,97362.62
2022-08-29T10:14:53.932Z,97362.14
2022-08-29T10:18:12.737Z,97362.39
2022-08-29T10:20:47.469Z,97358.63
2022-08-29T10:23:22.525Z,97352.02
2022-08-29T10:25:51.895Z,97351.20
2022-08-29T10:28:51.578Z,97353.95
2022-08-29T10:31:36.523Z,97352.70
2022-08-29T10:34:49.398Z,97349.14
2022-08-29T10:37:55.460Z,97344.81
2022-08-29T10:40:43.469Z,97345.30
2022-08-29T10:43:30.412Z,97349.64
2022-08-29T10:46:02.776Z,97343.48
2022-08-29T10:48:39.978Z,97344.08
2022-08-29T10:51:17.979Z,97345.55
2022-08-29T10:53:57.001Z,97342.64
2022-08-29T10:56:44.731Z,97345.38
2022-08-29T10:59:23.860Z,97341.19
2022-08-29T11:02:13.332Z,97339.23
2022-08-29T11:04:51.236Z,97326.35
2022-08-29T11:07:40.710Z,97326.39
2022-08-29T11:10:24.969Z,97328.85
2022-08-29T11:13:02.451Z,97322.70
2022-08-29T11:15:53.157Z,97319.55
2022-08-29T11:18:47.850Z,97318.94
2022-08-29T11:21:22.577Z,97317.26
2022-08-29T11:23:52.402Z,97313.11
2022-08-29T11:26:42.165Z,97318.02
2022-08-29T11:29:39.936Z,97316.35
2022-08-29T11:32:24.400Z,97312.81
2022-08-29T11:35:24.064Z,97311.11
2022-08-29T11:37:55.663Z,97307.55
2022-08-29T11:41:25.732Z,97311.54
2022-08-29T11:43:37.616Z,97308.49
2022-08-29T11:46:09.845Z,97302.00
2022-08-29T11:48:48.364Z,97295.66
2022-08-29T11:51:37.647Z,97296.83
2022-08-29T11:54:24.952Z,97297.34
2022-08-29T11:57:02.851Z,97299.17
2022-08-29T11:59:49.254Z,97296.45
2022-08-29T12:02:32.787Z,97295.17
2022-08-29T12:05:03.208Z,97295.38
2022-08-29T12:08:14.451Z,97295.33
2022-08-29T12:10:57.531Z,97294.38
2022-08-29T12:13:44.430Z,97287.54
2022-08-29T12:16:18.389Z,97285.72
2022-08-29T12:18:53.172Z,97281.92
2022-08-29T12:21:37.314Z,97277.48
2022-08-29T12:24:26.273Z,97276.02
2022-08-29T12:26:56.190Z,97276.78
2022-08-29T12:29:27.643Z,97275.56
2022-08-29T12:32:22.540Z,97271.52
2022-08-29T12:35:11.300Z,97279.61
2022-08-29T12:37:50.737Z,97283.16
2022-08-29T12:40:39.735Z,97284.77
2022-08-29T12:43:23.032Z,97293.21
2022-08-29T12:45:52.739Z,97297.05
2022-08-29T12:48:30.124Z,97298.80
2022-08-29T12:50:59.140Z,97307.80
2022-08-29T12:53:33.506Z,97308.97
2022-08-29T12:56:20.345Z,97307.73
2022-08-29T12:58:56.510Z,97300.14
2022-08-29T13:01:28.292Z,97304.12
2022-08-29T13:04:04.448Z,97300.18
2022-08-29T13:06:34.648Z,97299.98
2022-08-29T13:09:06.412Z,97297.65
2022-08-29T13:11:36.625Z,97307.79
2022-08-29T13:14:11.628Z,97303.98
2022-08-29T13:16:41.147Z,97301.46
2022-08-29T13:19:21.109Z,97306.66
2022-08-29T13:21:49.800Z,97310.67
2022-08-29T13:24:21.265Z,97314.62
2022-08-29T13:27:02.812Z,97310.98
2022-08-29T13:32:24.261Z,97313.79
2022-08-29T13:35:15.098Z,97318.02
2022-08-29T13:37:47.142Z,97320.58
2022-08-29T13:40:37.304Z,97320.33
2022-08-29T13:43:06.913Z,97320.39
2022-08-29T13:45:36.648Z,97314.03
2022-08-29T13:48:20.620Z,97311.17
2022-08-29T13:50:49.317Z,97311.56
2022-08-29T13:53:18.131Z,97314.94
2022-08-29T13:55:46.963Z,97311.65
2022-08-29T13:58:18.700Z,97308.64
2022-08-29T14:00:47.710Z,97308.64
2022-08-29T14:03:18.581Z,97302.41
2022-08-29T14:05:47.550Z,97297.10
2022-08-29T14:08:16.596Z,97293.15
2022-08-29T14:10:46.032Z,97290.77
2022-08-29T14:13:14.926Z,97287.02
2022-08-29T14:15:44.068Z,97281.14
2022-08-29T14:18:12.806Z,97276.64
2022-08-29T14:20:41.593Z,97272.54
2022-08-29T14:23:10.277Z,97266.13
2022-08-29T14:25:38.862Z,97261.87
2022-08-29T14:28:07.757Z,97262.75
2022-08-29T14:30:37.359Z,97257.61
2022-08-29T14:33:06.247Z,97253.36
2022-08-29T14:35:42.368Z,97248.16
2022-08-29T14:38:12.016Z,97243.92
2022-08-29T14:40:41.259Z,97238.90
2022-08-29T14:43:12.361Z,97241.17
2022-08-29T14:45:41.044Z,97234.39
2022-08-29T14:48:09.736Z,97231.35
2022-08-29T14:50:38.622Z,97230.08
2022-08-29T14:53:07.735Z,97233.05
2022-08-29T14:55:37.423Z,97237.50
2022-08-29T14:58:06.006Z,97245.42
2022-08-29T15:00:34.797Z,97254.59
2022-08-29T15:03:04.213Z,97264.80
2022-08-29T15:05:32.884Z,97279.48
2022-08-29T15:08:06.541Z,97283.94
2022-08-29T15:10:35.782Z,97282.11
2022-08-29T15:13:05.705Z,97280.85
2022-08-29T15:15:35.058Z,97282.17
2022-08-29T15:18:06.013Z,97281.15
2022-08-29T15:20:37.195Z,97276.50
2022-08-29T15:23:07.102Z,97273.64
2022-08-29T15:25:35.994Z,97271.98
2022-08-29T15:28:05.912Z,97259.86
2022-08-29T15:30:35.452Z,97257.03
2022-08-29T15:33:04.606Z,97261.80
2022-08-29T15:35:33.394Z,97260.62
2022-08-29T15:38:02.389Z,97265.53
2022-08-29T15:40:31.263Z,97268.52
2022-08-29T15:43:00.264Z,97272.27
2022-08-29T15:45:29.670Z,97275.66
2022-08-29T15:48:00.810Z,97280.14
2022-08-29T15:50:30.446Z,97284.56
2022-08-29T15:52:59.517Z,97288.50
2022-08-29T15:55:28.305Z,97295.98
2022-08-29T15:57:57.296Z,97298.91
2022-08-29T16:00:30.216Z,97304.13
2022-08-29T16:03:03.372Z,97299.86
2022-08-29T16:05:33.633Z,97296.45
2022-08-29T16:08:03.116Z,97296.95
2022-08-29T16:10:34.942Z,97297.89
2022-08-29T16:13:04.463Z,97305.02
2022-08-29T16:15:34.322Z,97313.33
2022-08-29T16:18:04.131Z,97322.69
2022-08-29T16:20:33.423Z,97329.43
2022-08-29T16:23:02.147Z,97332.03
2022-08-29T16:25:32.717Z,97338.34
2022-08-29T16:28:03.498Z,97341.36
2022-08-29T16:30:35.362Z,97341.23
2022-08-29T16:33:06.751Z,97345.57
2022-08-29T16:35:36.353Z,97352.10
2022-08-29T16:38:04.940Z,97349.41
2022-08-29T16:40:33.907Z,97350.95
2022-08-29T16:43:04.814Z,97353.62
2022-08-29T16:45:34.028Z,97365.91
2022-08-29T16:48:04.757Z,97370.86
2022-08-29T16:50:43.626Z,97373.82
2022-08-29T16:53:12.310Z,97374.45
2022-08-29T16:55:41.095Z,97376.44
2022-08-29T16:58:28.178Z,97380.59
2022-08-29T17:00:58.154Z,97383.92
2022-08-29T17:03:27.429Z,97382.89
2022-08-29T17:05:56.425Z,97383.64
2022-08-29T17:08:25.624Z,97377.90
2022-08-29T17:10:54.321Z,97381.77
2022-08-29T17:13:23.607Z,97385.78
2022-08-29T17:15:52.807Z,97391.44
2022-08-29T17:18:21.491Z,97397.73
2022-08-29T17:20:52.020Z,97405.41
2022-08-29T17:23:20.807Z,97407.23
2022-08-29T17:25:50.415Z,97407.27
2022-08-29T17:28:20.675Z,97411.22
2022-08-29T17:30:49.974Z,97408.38
2022-08-29T17:33:20.158Z,97407.62
2022-08-29T17:35:49.561Z,97403.23
2022-08-29T17:38:18.574Z,97409.36
2022-08-29T17:40:50.860Z,97410.27
2022-08-29T17:43:19.916Z,97410.80
2022-08-29T17:45:49.241Z,97412.70
2022-08-29T17:48:19.956Z,97414.95
2022-08-29T17:50:50.701Z,97411.41
2022-08-29T17:53:20.779Z,97414.81
2022-08-29T17:55:51.383Z,97409.38
2022-08-29T17:58:21.787Z,97405.79
2022-08-29T18:00:50.795Z,97407.80
2022-08-29T18:03:19.943Z,97408.76
2022-08-29T18:05:48.837Z,97412.02
2022-08-29T18:08:17.820Z,97412.84
2022-08-29T18:10:46.622Z,97412.94
2022-08-29T18:13:19.743Z,97414.71
2022-08-29T18:15:52.670Z,97413.58
2022-08-29T18:18:22.013Z,97421.55
2022-08-29T18:20:51.176Z,97426.27
2022-08-29T18:23:20.090Z,97432.00
2022-08-29T18:25:49.503Z,97436.23
2022-08-29T18:28:18.279Z,97437.21
2022-08-29T18:30:47.106Z,97433.81
2022-08-29T18:33:16.168Z,97430.77
2022-08-29T18:35:44.944Z,97427.72
2022-08-29T18:38:15.137Z,97425.30
2022-08-29T18:40:44.703Z,97421.42
2022-08-29T18:43:15.364Z,97423.47
2022-08-29T18:45:44.162Z,97427.66
2022-08-29T18:48:13.107Z,97430.35
2022-08-29T18:50:41.766Z,97424.73
2022-08-29T18:53:22.072Z,97421.63
2022-08-29T18:55:54.270Z,97417.94
2022-08-29T18:58:27.279Z,97420.44
2022-08-29T19:00:57.391Z,97420.18
2022-08-29T19:03:26.394Z,97426.15
2022-08-29T19:05:55.079Z,97423.71
2022-08-29T19:08:27.860Z,97424.89
2022-08-29T19:10:57.471Z,97425.68
2022-08-29T19:13:26.988Z,97425.87
2022-08-29T19:16:00.570Z,97427.54
2022-08-29T19:18:29.463Z,97425.65
2022-08-29T19:21:06.732Z,97424.31
2022-08-29T19:23:42.907Z,97419.86
2022-08-29T19:26:17.540Z,97421.38
2022-08-29T19:28:47.346Z,97425.73
2022-08-29T19:31:16.394Z,97427.61
2022-08-29T19:33:47.582Z,97433.09
2022-08-29T19:36:18.025Z,97430.48
2022-08-29T19:38:47.330Z,97430.93
2022-08-29T19:41:17.283Z,97427.65
2022-08-29T19:43:46.016Z,97431.95
2022-08-29T19:46:21.183Z,97433.41
2022-08-29T19:48:52.362Z,97435.36
2022-08-29T19:51:24.738Z,97439.24
2022-08-29T19:53:59.491Z,97441.22
2022-08-29T19:56:38.888Z,97439.95
2022-08-29T19:59:24.822Z,97443.08
2022-08-29T20:02:06.107Z,97438.94
2022-08-29T20:04:39.395Z,97435.58
2022-08-29T20:07:08.082Z,97440.11
2022-08-29T20:09:37.487Z,97437.13
2022-08-29T20:12:07.667Z,97437.83
2022-08-29T20:14:37.517Z,97438.35
2022-08-29T20:17:09.213Z,97438.58
2022-08-29T20:19:39.540Z,97433.16
2022-08-29T20:22:08.387Z,97430.96
2022-08-29T20:24:37.363Z,97430.44
2022-08-29T20:27:07.908Z,97433.36
2022-08-29T20:32:12.142Z,97439.55
2022-08-29T20:34:41.034Z,97433.00
2022-08-29T20:37:10.740Z,97434.00
2022-08-29T20:39:42.874Z,97433.67
2022-08-29T20:42:11.597Z,97424.42
2022-08-29T20:44:43.864Z,97426.48
2022-08-29T20:47:16.446Z,97427.92
2022-08-29T20:49:49.326Z,97423.98
2022-08-29T20:52:20.123Z,97425.23
2022-08-29T20:54:48.957Z,97425.20
2022-08-29T20:57:18.014Z,97430.35
2022-08-29T20:59:46.835Z,97429.48
2022-08-29T21:02:15.976Z,97431.92
2022-08-29T21:05:03.045Z,97431.74
2022-08-29T21:07:31.628Z,97436.58
2022-08-29T21:10:02.031Z,97439.95
2022-08-29T21:12:31.971Z,97436.14
2022-08-29T21:15:00.968Z,97439.15
2022-08-29T21:17:29.852Z,97432.12
2022-08-29T21:19:58.536Z,97433.86
2022-08-29T21:22:27.539Z,97433.89
2022-08-29T21:24:57.173Z,97432.42
2022-08-29T21:27:26.948Z,97433.30
2022-08-29T21:29:56.217Z,97427.11
2022-08-29T21:32:25.457Z,97431.70
2022-08-29T21:34:54.242Z,97431.88
2022-08-29T21:37:23.123Z,97434.05
2022-08-29T21:39:51.914Z,97438.70
2022-08-29T21:42:20.702Z,97441.76
2022-08-29T21:44:49.388Z,97439.70
2022-08-29T21:47:18.485Z,97441.06
2022-08-29T21:49:48.806Z,97446.08
2022-08-29T21:52:18.208Z,97445.80
2022-08-29T21:54:49.252Z,97450.98
2022-08-29T21:57:41.700Z,97451.38
2022-08-29T22:00:11.101Z,97452.45
2022-08-29T22:02:40.629Z,97454.08
2022-08-29T22:05:09.802Z,97449.48
2022-08-29T22:07:40.958Z,97448.63
2022-08-29T22:10:18.660Z,97446.11
2022-08-29T22:12:47.837Z,97449.71
2022-08-29T22:15:35.476Z,97455.16
2022-08-29T22:18:05.591Z,97457.29
2022-08-29T22:20:34.474Z,97456.20
2022-08-29T22:23:03.569Z,97455.63
2022-08-29T22:25:32.764Z,97456.03
2022-08-29T22:28:01.873Z,97457.02
2022-08-29T22:30:32.406Z,97459.65
2022-08-29T22:33:01.897Z,97460.81
2022-08-29T22:35:30.582Z,97460.52
2022-08-29T22:37:59.576Z,97467.09
2022-08-29T22:40:29.046Z,97468.45
2022-08-29T22:42:58.584Z,97467.41
2022-08-29T22:45:28.267Z,97468.32
2022-08-29T22:47:56.983Z,97465.44
2022-08-29T22:50:26.790Z,97467.13
2022-08-29T22:52:58.648Z,97468.22
2022-08-29T22:57:55.721Z,97470.77
2022-08-29T23:00:27.799Z,97467.35
2022-08-29T23:02:56.880Z,97463.20
2022-08-29T23:05:26.298Z,97463.52
2022-08-29T23:07:55.584Z,97466.70
2022-08-29T23:10:25.207Z,97469.55
2022-08-29T23:12:54.843Z,97467.11
2022-08-29T23:15:24.405Z,97467.84
2022-08-29T23:17:53.826Z,97469.25
2022-08-29T23:20:23.516Z,97467.41
2022-08-29T23:22:58.317Z,97467.44
2022-08-29T23:25:27.138Z,97469.48
2022-08-29T23:27:56.941Z,97473.53
2022-08-29T23:30:26.050Z,97470.13
2022-08-29T23:32:55.658Z,97473.38
2022-08-29T23:35:25.052Z,97473.48
2022-08-29T23:37:55.576Z,97473.67
2022-08-29T23:40:24.639Z,97474.59
2022-08-29T23:42:54.077Z,97472.02
2022-08-29T23:45:24.650Z,97471.27
2022-08-29T23:47:54.121Z,97472.92
2022-08-29T23:50:24.060Z,97471.55
2022-08-29T23:52:53.671Z,97467.83
2022-08-29T23:55:23.345Z,97466.59
2022-08-29T23:57:55.008Z,97465.44
